createdAt,value
2017-05-03T00:00:08.911Z,932.66
2017-05-03T00:00:21.586Z,932.65
2017-05-03T00:00:34.208Z,932.67
2017-05-03T00:00:47.342Z,932.65
2017-05-03T00:00:59.937Z,932.64
2017-05-03T00:01:12.540Z,932.63
2017-05-03T00:01:25.668Z,932.62
2017-05-03T00:01:38.791Z,932.66
2017-05-03T00:01:51.870Z,932.65
2017-05-03T00:02:05.025Z,932.65
2017-05-03T00:02:17.639Z,932.66
2017-05-03T00:02:30.264Z,932.66
2017-05-03T00:02:43.388Z,932.68
2017-05-03T00:02:56.527Z,932.68
2017-05-03T00:03:08.612Z,932.65
2017-05-03T00:03:21.243Z,932.69
2017-05-03T00:03:34.370Z,932.7
2017-05-03T00:03:47.476Z,932.69
2017-05-03T00:04:00.160Z,932.66
2017-05-03T00:04:12.829Z,932.67
2017-05-03T00:04:25.512Z,932.69
2017-05-03T00:04:38.630Z,932.67
2017-05-03T00:04:51.760Z,932.65
2017-05-03T00:05:04.896Z,932.69
2017-05-03T00:05:17.514Z,932.65
2017-05-03T00:05:30.674Z,932.67
2017-05-03T00:05:43.320Z,932.67
2017-05-03T00:05:56.481Z,932.7
2017-05-03T00:06:09.048Z,932.71
2017-05-03T00:06:22.227Z,932.73
2017-05-03T00:06:34.871Z,932.67
2017-05-03T00:06:47.999Z,932.7
2017-05-03T00:07:01.142Z,932.67
2017-05-03T00:07:14.245Z,932.69
2017-05-03T00:07:27.355Z,932.68
2017-05-03T00:07:40.526Z,932.66
2017-05-03T00:07:53.649Z,932.7
2017-05-03T00:08:06.265Z,932.67
2017-05-03T00:08:18.898Z,932.69
2017-05-03T00:08:31.514Z,932.68
2017-05-03T00:08:44.717Z,932.67
2017-05-03T00:08:57.883Z,932.68
2017-05-03T00:09:11.037Z,932.67
2017-05-03T00:09:24.116Z,932.7
2017-05-03T00:09:36.737Z,932.66
2017-05-03T00:09:49.811Z,932.67
2017-05-03T00:10:02.015Z,932.69
2017-05-03T00:10:15.178Z,932.68
2017-05-03T00:10:28.275Z,932.7
2017-05-03T00:10:40.445Z,932.72
2017-05-03T00:10:53.566Z,932.67
2017-05-03T00:11:06.692Z,932.7
2017-05-03T00:11:19.980Z,932.69
2017-05-03T00:11:33.157Z,932.71
2017-05-03T00:11:46.256Z,932.67
2017-05-03T00:11:59.787Z,932.66
2017-05-03T00:12:13.109Z,932.63
2017-05-03T00:12:25.780Z,932.69
2017-05-03T00:12:38.927Z,932.7
2017-05-03T00:12:52.016Z,932.69
2017-05-03T00:13:05.108Z,932.68
2017-05-03T00:13:17.258Z,932.69
2017-05-03T00:13:30.426Z,932.69
2017-05-03T00:13:43.528Z,932.68
2017-05-03T00:13:56.642Z,932.67
2017-05-03T00:14:09.782Z,932.73
2017-05-03T00:14:22.392Z,932.72
2017-05-03T00:14:35.600Z,932.71
2017-05-03T00:14:48.703Z,932.68
2017-05-03T00:15:01.315Z,932.7
2017-05-03T00:15:13.970Z,932.67
2017-05-03T00:15:27.075Z,932.69
2017-05-03T00:15:39.739Z,932.66
2017-05-03T00:15:52.822Z,932.7
2017-05-03T00:16:05.465Z,932.71
2017-05-03T00:16:18.644Z,932.69
2017-05-03T00:16:31.800Z,932.69
2017-05-03T00:16:44.948Z,932.68
2017-05-03T00:16:57.566Z,932.69
2017-05-03T00:17:10.207Z,932.67
2017-05-03T00:17:22.852Z,932.69
2017-05-03T00:17:36.003Z,932.68
2017-05-03T00:17:48.641Z,932.65
2017-05-03T00:18:01.238Z,932.66
2017-05-03T00:18:14.346Z,932.71
2017-05-03T00:18:27.443Z,932.64
2017-05-03T00:18:39.590Z,932.68
2017-05-03T00:18:52.659Z,932.63
2017-05-03T00:19:05.326Z,932.66
2017-05-03T00:19:17.941Z,932.66
2017-05-03T00:19:31.142Z,932.65
2017-05-03T00:19:44.321Z,932.65
2017-05-03T00:19:57.482Z,932.63
2017-05-03T00:20:10.126Z,932.68
2017-05-03T00:20:22.848Z,932.64
2017-05-03T00:20:35.537Z,932.63
2017-05-03T00:20:48.660Z,932.65
2017-05-03T00:21:01.831Z,932.66
2017-05-03T00:21:15.017Z,932.64
2017-05-03T00:21:28.243Z,932.61
2017-05-03T00:21:41.602Z,932.61
2017-05-03T00:21:54.775Z,932.63
2017-05-03T00:22:07.374Z,932.65
2017-05-03T00:22:19.491Z,932.62
2017-05-03T00:22:32.648Z,932.59
2017-05-03T00:22:45.272Z,932.6
2017-05-03T00:22:58.433Z,932.63
2017-05-03T00:23:11.079Z,932.63
2017-05-03T00:23:24.256Z,932.58
2017-05-03T00:23:37.352Z,932.58
2017-05-03T00:23:50.511Z,932.59
2017-05-03T00:24:03.678Z,932.6
2017-05-03T00:24:16.831Z,932.59
2017-05-03T00:24:29.985Z,932.56
2017-05-03T00:24:43.107Z,932.57
2017-05-03T00:24:56.264Z,932.56
2017-05-03T00:25:09.373Z,932.57
2017-05-03T00:25:22.522Z,932.57
2017-05-03T00:25:35.109Z,932.57
2017-05-03T00:25:48.213Z,932.6
2017-05-03T00:26:01.363Z,932.57
2017-05-03T00:26:14.186Z,932.63
2017-05-03T00:26:27.058Z,932.61
2017-05-03T00:26:39.751Z,932.6
2017-05-03T00:26:52.902Z,932.58
2017-05-03T00:27:05.568Z,932.62
2017-05-03T00:27:18.234Z,932.59
2017-05-03T00:27:31.345Z,932.57
2017-05-03T00:27:44.468Z,932.59
2017-05-03T00:27:57.136Z,932.59
2017-05-03T00:28:10.347Z,932.59
2017-05-03T00:28:23.481Z,932.56
2017-05-03T00:28:36.582Z,932.56
2017-05-03T00:28:49.714Z,932.55
2017-05-03T00:29:02.844Z,932.56
2017-05-03T00:29:15.492Z,932.54
2017-05-03T00:29:28.655Z,932.58
2017-05-03T00:29:41.813Z,932.57
2017-05-03T00:29:54.946Z,932.57
2017-05-03T00:30:08.074Z,932.57
2017-05-03T00:30:20.260Z,932.59
2017-05-03T00:30:32.957Z,932.57
2017-05-03T00:30:45.626Z,932.59
2017-05-03T00:30:58.746Z,932.6
2017-05-03T00:31:11.855Z,932.57
2017-05-03T00:31:24.946Z,932.55
2017-05-03T00:31:38.067Z,932.56
2017-05-03T00:31:50.653Z,932.55
2017-05-03T00:32:03.734Z,932.56
2017-05-03T00:32:16.915Z,932.58
2017-05-03T00:32:30.036Z,932.57
2017-05-03T00:32:42.607Z,932.6
2017-05-03T00:32:55.741Z,932.56
2017-05-03T00:33:08.942Z,932.58
2017-05-03T00:33:22.106Z,932.58
2017-05-03T00:33:34.212Z,932.59
2017-05-03T00:33:47.365Z,932.58
2017-05-03T00:34:00.487Z,932.55
2017-05-03T00:34:13.620Z,932.58
2017-05-03T00:34:27.389Z,932.59
2017-05-03T00:34:40.575Z,932.58
2017-05-03T00:34:53.732Z,932.6
2017-05-03T00:35:06.352Z,932.58
2017-05-03T00:35:18.971Z,932.57
2017-05-03T00:35:32.126Z,932.61
2017-05-03T00:35:45.768Z,932.58
2017-05-03T00:35:58.829Z,932.58
2017-05-03T00:36:11.577Z,932.6
2017-05-03T00:36:24.712Z,932.57
2017-05-03T00:36:37.800Z,932.59
2017-05-03T00:36:50.404Z,932.6
2017-05-03T00:37:03.092Z,932.6
2017-05-03T00:37:15.764Z,932.6
2017-05-03T00:37:28.378Z,932.62
2017-05-03T00:37:41.019Z,932.59
2017-05-03T00:37:53.663Z,932.58
2017-05-03T00:38:06.775Z,932.59
2017-05-03T00:38:20.369Z,932.61
2017-05-03T00:38:33.543Z,932.62
2017-05-03T00:38:46.664Z,932.62
2017-05-03T00:38:59.887Z,932.61
2017-05-03T00:39:13.038Z,932.66
2017-05-03T00:39:26.201Z,932.6
2017-05-03T00:39:39.357Z,932.58
2017-05-03T00:39:52.483Z,932.58
2017-05-03T00:40:05.119Z,932.58
2017-05-03T00:40:18.316Z,932.59
2017-05-03T00:40:31.465Z,932.6
2017-05-03T00:40:44.149Z,932.58
2017-05-03T00:40:57.236Z,932.61
2017-05-03T00:41:10.340Z,932.57
2017-05-03T00:41:23.497Z,932.59
2017-05-03T00:41:36.944Z,932.59
2017-05-03T00:41:50.154Z,932.59
2017-05-03T00:42:05.119Z,932.57
2017-05-03T00:42:18.414Z,932.58
2017-05-03T00:42:31.535Z,932.58
2017-05-03T00:42:44.693Z,932.57
2017-05-03T00:42:57.917Z,932.59
2017-05-03T00:43:11.102Z,932.57
2017-05-03T00:43:24.277Z,932.6
2017-05-03T00:43:37.447Z,932.63
2017-05-03T00:43:50.595Z,932.6
2017-05-03T00:44:03.267Z,932.57
2017-05-03T00:44:16.388Z,932.55
2017-05-03T00:44:28.979Z,932.58
2017-05-03T00:44:42.126Z,932.57
2017-05-03T00:44:55.291Z,932.57
2017-05-03T00:45:07.935Z,932.55
2017-05-03T00:45:21.853Z,932.56
2017-05-03T00:45:35.376Z,932.56
2017-05-03T00:45:48.070Z,932.57
2017-05-03T00:46:01.252Z,932.59
2017-05-03T00:46:14.413Z,932.57
2017-05-03T00:46:27.571Z,932.57
2017-05-03T00:46:40.673Z,932.59
2017-05-03T00:46:53.889Z,932.58
2017-05-03T00:47:06.517Z,932.56
2017-05-03T00:47:19.677Z,932.58
2017-05-03T00:47:32.807Z,932.58
2017-05-03T00:47:45.987Z,932.58
2017-05-03T00:47:59.157Z,932.55
2017-05-03T00:48:11.802Z,932.53
2017-05-03T00:48:24.955Z,932.56
2017-05-03T00:48:38.121Z,932.57
2017-05-03T00:48:50.716Z,932.56
2017-05-03T00:49:03.347Z,932.55
2017-05-03T00:49:16.531Z,932.55
2017-05-03T00:49:28.689Z,932.58
2017-05-03T00:49:41.867Z,932.59
2017-05-03T00:49:55.056Z,932.54
2017-05-03T00:50:08.174Z,932.59
2017-05-03T00:50:21.329Z,932.57
2017-05-03T00:50:35.677Z,932.56
2017-05-03T00:50:48.816Z,932.56
2017-05-03T00:51:01.957Z,932.55
2017-05-03T00:51:15.138Z,932.59
2017-05-03T00:51:28.259Z,932.59
2017-05-03T00:51:41.386Z,932.59
2017-05-03T00:51:54.553Z,932.6
2017-05-03T00:52:07.222Z,932.58
2017-05-03T00:52:20.592Z,932.6
2017-05-03T00:52:33.237Z,932.58
2017-05-03T00:52:45.863Z,932.61
2017-05-03T00:52:59.004Z,932.58
2017-05-03T00:53:11.713Z,932.59
2017-05-03T00:53:24.828Z,932.57
2017-05-03T00:53:38.007Z,932.61
2017-05-03T00:53:51.130Z,932.6
2017-05-03T00:54:04.250Z,932.59
2017-05-03T00:54:17.415Z,932.59
2017-05-03T00:54:30.552Z,932.59
2017-05-03T00:54:43.727Z,932.56
2017-05-03T00:54:56.882Z,932.62
2017-05-03T00:55:08.520Z,932.59
2017-05-03T00:55:21.143Z,932.59
2017-05-03T00:55:34.249Z,932.58
2017-05-03T00:55:47.373Z,932.6
2017-05-03T00:56:00.500Z,932.56
2017-05-03T00:56:13.156Z,932.62
2017-05-03T00:56:26.321Z,932.6
2017-05-03T00:56:39.696Z,932.62
2017-05-03T00:56:52.844Z,932.59
2017-05-03T00:57:06.000Z,932.63
2017-05-03T00:57:19.139Z,932.59
2017-05-03T00:57:31.732Z,932.59
2017-05-03T00:57:44.899Z,932.66
2017-05-03T00:57:58.089Z,932.64
2017-05-03T00:58:11.211Z,932.64
2017-05-03T00:58:24.390Z,932.65
2017-05-03T00:58:37.540Z,932.58
2017-05-03T00:58:50.724Z,932.62
2017-05-03T00:59:03.838Z,932.61
2017-05-03T00:59:17.008Z,932.6
2017-05-03T00:59:30.154Z,932.62
2017-05-03T00:59:43.230Z,932.59
2017-05-03T00:59:55.869Z,932.61
2017-05-03T01:00:08.535Z,932.61
2017-05-03T01:00:21.825Z,932.6
2017-05-03T01:00:34.451Z,932.63
2017-05-03T01:00:47.581Z,932.6
2017-05-03T01:01:00.697Z,932.58
2017-05-03T01:01:13.314Z,932.59
2017-05-03T01:01:25.963Z,932.57
2017-05-03T01:01:39.153Z,932.6
2017-05-03T01:01:52.294Z,932.61
2017-05-03T01:02:04.905Z,932.65
2017-05-03T01:02:18.054Z,932.6
2017-05-03T01:02:31.219Z,932.62
2017-05-03T01:02:44.335Z,932.65
2017-05-03T01:02:57.400Z,932.64
2017-05-03T01:03:10.606Z,932.61
2017-05-03T01:03:23.745Z,932.63
2017-05-03T01:03:36.914Z,932.65
2017-05-03T01:03:50.020Z,932.63
2017-05-03T01:04:02.117Z,932.63
2017-05-03T01:04:14.755Z,932.64
2017-05-03T01:04:27.883Z,932.66
2017-05-03T01:04:41.030Z,932.62
2017-05-03T01:04:53.666Z,932.64
2017-05-03T01:05:06.780Z,932.64
2017-05-03T01:05:19.891Z,932.65
2017-05-03T01:05:32.948Z,932.62
2017-05-03T01:05:46.057Z,932.67
2017-05-03T01:05:59.140Z,932.65
2017-05-03T01:06:11.317Z,932.67
2017-05-03T01:06:24.433Z,932.66
2017-05-03T01:06:38.855Z,932.64
2017-05-03T01:06:52.055Z,932.62
2017-05-03T01:07:05.218Z,932.67
2017-05-03T01:07:17.327Z,932.63
2017-05-03T01:07:30.460Z,932.66
2017-05-03T01:07:43.086Z,932.65
2017-05-03T01:07:56.159Z,932.63
2017-05-03T01:08:08.293Z,932.64
2017-05-03T01:08:21.032Z,932.64
2017-05-03T01:08:33.639Z,932.66
2017-05-03T01:08:46.743Z,932.66
2017-05-03T01:08:59.936Z,932.66
2017-05-03T01:09:12.567Z,932.64
2017-05-03T01:09:25.726Z,932.65
2017-05-03T01:09:38.812Z,932.66
2017-05-03T01:09:52.604Z,932.66
2017-05-03T01:10:05.295Z,932.69
2017-05-03T01:10:17.440Z,932.65
2017-05-03T01:10:30.638Z,932.67
2017-05-03T01:10:43.774Z,932.63
2017-05-03T01:10:55.937Z,932.66
2017-05-03T01:11:09.086Z,932.68
2017-05-03T01:11:22.222Z,932.65
2017-05-03T01:11:35.355Z,932.65
2017-05-03T01:11:48.768Z,932.64
2017-05-03T01:12:01.867Z,932.68
2017-05-03T01:12:15.026Z,932.65
2017-05-03T01:12:28.212Z,932.61
2017-05-03T01:12:40.376Z,932.66
2017-05-03T01:12:53.469Z,932.66
2017-05-03T01:13:06.554Z,932.69
2017-05-03T01:13:19.156Z,932.67
2017-05-03T01:13:31.769Z,932.67
2017-05-03T01:13:44.908Z,932.66
2017-05-03T01:13:58.020Z,932.65
2017-05-03T01:14:11.156Z,932.62
2017-05-03T01:14:24.300Z,932.68
2017-05-03T01:14:37.490Z,932.66
2017-05-03T01:14:50.638Z,932.63
2017-05-03T01:15:03.827Z,932.66
2017-05-03T01:15:16.944Z,932.62
2017-05-03T01:15:29.561Z,932.63
2017-05-03T01:15:42.665Z,932.63
2017-05-03T01:15:55.759Z,932.61
2017-05-03T01:16:08.878Z,932.63
2017-05-03T01:16:22.005Z,932.63
2017-05-03T01:16:35.180Z,932.62
2017-05-03T01:16:48.381Z,932.61
2017-05-03T01:17:01.553Z,932.6
2017-05-03T01:17:15.529Z,932.61
2017-05-03T01:17:28.697Z,932.63
2017-05-03T01:17:41.839Z,932.61
2017-05-03T01:17:55.011Z,932.63
2017-05-03T01:18:08.115Z,932.62
2017-05-03T01:18:20.744Z,932.63
2017-05-03T01:18:33.911Z,932.62
2017-05-03T01:18:47.009Z,932.62
2017-05-03T01:19:00.127Z,932.6
2017-05-03T01:19:13.252Z,932.6
2017-05-03T01:19:26.411Z,932.6
2017-05-03T01:19:39.561Z,932.59
2017-05-03T01:19:52.710Z,932.62
2017-05-03T01:20:05.344Z,932.61
2017-05-03T01:20:17.967Z,932.65
2017-05-03T01:20:31.116Z,932.63
2017-05-03T01:20:44.272Z,932.62
2017-05-03T01:20:56.895Z,932.6
2017-05-03T01:21:09.987Z,932.61
2017-05-03T01:21:23.129Z,932.6
2017-05-03T01:21:36.257Z,932.58
2017-05-03T01:21:48.861Z,932.59
2017-05-03T01:22:02.009Z,932.59
2017-05-03T01:22:15.196Z,932.61
2017-05-03T01:22:28.228Z,932.55
2017-05-03T01:22:41.326Z,932.58
2017-05-03T01:22:54.475Z,932.57
2017-05-03T01:23:07.610Z,932.58
2017-05-03T01:23:20.786Z,932.56
2017-05-03T01:23:33.945Z,932.6
2017-05-03T01:23:46.626Z,932.58
2017-05-03T01:23:59.787Z,932.6
2017-05-03T01:24:12.397Z,932.57
2017-05-03T01:24:25.467Z,932.55
2017-05-03T01:24:38.608Z,932.61
2017-05-03T01:24:51.707Z,932.58
2017-05-03T01:25:04.850Z,932.55
2017-05-03T01:25:18.055Z,932.6
2017-05-03T01:25:31.186Z,932.6
2017-05-03T01:25:43.823Z,932.58
2017-05-03T01:25:55.926Z,932.58
2017-05-03T01:26:09.074Z,932.56
2017-05-03T01:26:22.299Z,932.59
2017-05-03T01:26:35.490Z,932.55
2017-05-03T01:26:48.811Z,932.6
2017-05-03T01:27:01.941Z,932.57
2017-05-03T01:27:14.551Z,932.59
2017-05-03T01:27:27.204Z,932.56
2017-05-03T01:27:39.831Z,932.57
2017-05-03T01:27:52.939Z,932.54
2017-05-03T01:28:06.132Z,932.54
2017-05-03T01:28:18.767Z,932.52
2017-05-03T01:28:31.428Z,932.59
2017-05-03T01:28:44.630Z,932.58
2017-05-03T01:28:57.778Z,932.55
2017-05-03T01:29:10.882Z,932.58
2017-05-03T01:29:23.534Z,932.57
2017-05-03T01:29:36.619Z,932.57
2017-05-03T01:29:49.748Z,932.57
2017-05-03T01:30:02.875Z,932.56
2017-05-03T01:30:15.013Z,932.58
2017-05-03T01:30:28.181Z,932.56
2017-05-03T01:30:41.316Z,932.59
2017-05-03T01:30:54.522Z,932.58
2017-05-03T01:31:07.171Z,932.57
2017-05-03T01:31:19.839Z,932.6
2017-05-03T01:31:32.970Z,932.58
2017-05-03T01:31:46.122Z,932.58
2017-05-03T01:31:59.284Z,932.56
2017-05-03T01:32:11.904Z,932.55
2017-05-03T01:32:25.027Z,932.57
2017-05-03T01:32:38.127Z,932.55
2017-05-03T01:32:50.770Z,932.62
2017-05-03T01:33:03.892Z,932.56
2017-05-03T01:33:17.020Z,932.58
2017-05-03T01:33:30.121Z,932.56
2017-05-03T01:33:43.244Z,932.57
2017-05-03T01:33:56.436Z,932.56
2017-05-03T01:34:08.524Z,932.57
2017-05-03T01:34:21.147Z,932.6
2017-05-03T01:34:34.297Z,932.55
2017-05-03T01:34:47.452Z,932.55
2017-05-03T01:35:00.606Z,932.57
2017-05-03T01:35:13.246Z,932.59
2017-05-03T01:35:26.389Z,932.6
2017-05-03T01:35:39.488Z,932.61
2017-05-03T01:35:53.200Z,932.59
2017-05-03T01:36:06.309Z,932.61
2017-05-03T01:36:18.955Z,932.61
2017-05-03T01:36:32.147Z,932.59
2017-05-03T01:36:45.292Z,932.6
2017-05-03T01:36:58.447Z,932.61
2017-05-03T01:37:11.586Z,932.62
2017-05-03T01:37:23.745Z,932.62
2017-05-03T01:37:36.852Z,932.6
2017-05-03T01:37:50.011Z,932.6
2017-05-03T01:38:03.106Z,932.63
2017-05-03T01:38:15.689Z,932.61
2017-05-03T01:38:28.322Z,932.61
2017-05-03T01:38:41.458Z,932.6
2017-05-03T01:38:54.569Z,932.61
2017-05-03T01:39:07.665Z,932.58
2017-05-03T01:39:20.764Z,932.6
2017-05-03T01:39:33.939Z,932.57
2017-05-03T01:39:47.111Z,932.6
2017-05-03T01:40:00.233Z,932.61
2017-05-03T01:40:13.335Z,932.57
2017-05-03T01:40:26.489Z,932.61
2017-05-03T01:40:39.571Z,932.6
2017-05-03T01:40:52.693Z,932.59
2017-05-03T01:41:05.781Z,932.59
2017-05-03T01:41:18.396Z,932.56
2017-05-03T01:41:31.057Z,932.54
2017-05-03T01:41:44.198Z,932.53
2017-05-03T01:41:57.501Z,932.56
2017-05-03T01:42:09.622Z,932.57
2017-05-03T01:42:22.254Z,932.53
2017-05-03T01:42:35.408Z,932.54
2017-05-03T01:42:48.612Z,932.54
2017-05-03T01:43:01.732Z,932.58
2017-05-03T01:43:13.899Z,932.53
2017-05-03T01:43:27.049Z,932.57
2017-05-03T01:43:40.172Z,932.57
2017-05-03T01:43:53.320Z,932.56
2017-05-03T01:44:05.877Z,932.57
2017-05-03T01:44:17.976Z,932.58
2017-05-03T01:44:31.143Z,932.56
2017-05-03T01:44:44.287Z,932.55
2017-05-03T01:44:57.473Z,932.57
2017-05-03T01:45:10.102Z,932.56
2017-05-03T01:45:22.730Z,932.55
2017-05-03T01:45:35.824Z,932.56
2017-05-03T01:45:48.953Z,932.57
2017-05-03T01:46:01.544Z,932.55
2017-05-03T01:46:14.217Z,932.56
2017-05-03T01:46:27.336Z,932.6
2017-05-03T01:46:40.493Z,932.57
2017-05-03T01:46:53.115Z,932.56
2017-05-03T01:47:06.231Z,932.55
2017-05-03T01:47:18.823Z,932.58
2017-05-03T01:47:31.957Z,932.56
2017-05-03T01:47:44.567Z,932.58
2017-05-03T01:47:57.748Z,932.57
2017-05-03T01:48:10.367Z,932.55
2017-05-03T01:48:23.529Z,932.56
2017-05-03T01:48:36.657Z,932.53
2017-05-03T01:48:49.769Z,932.55
2017-05-03T01:49:02.901Z,932.55
2017-05-03T01:49:15.560Z,932.55
2017-05-03T01:49:28.198Z,932.55
2017-05-03T01:49:40.791Z,932.57
2017-05-03T01:49:53.469Z,932.56
2017-05-03T01:50:06.689Z,932.56
2017-05-03T01:50:19.346Z,932.56
2017-05-03T01:50:32.009Z,932.57
2017-05-03T01:50:45.112Z,932.57
2017-05-03T01:50:58.251Z,932.58
2017-05-03T01:51:11.368Z,932.55
2017-05-03T01:51:23.965Z,932.55
2017-05-03T01:51:37.050Z,932.55
2017-05-03T01:51:50.179Z,932.52
2017-05-03T01:52:03.381Z,932.52
2017-05-03T01:52:16.581Z,932.53
2017-05-03T01:52:29.693Z,932.54
2017-05-03T01:52:42.811Z,932.52
2017-05-03T01:52:55.984Z,932.54
2017-05-03T01:53:09.112Z,932.51
2017-05-03T01:53:22.271Z,932.53
2017-05-03T01:53:34.960Z,932.49
2017-05-03T01:53:48.098Z,932.51
2017-05-03T01:54:01.289Z,932.51
2017-05-03T01:54:14.452Z,932.47
2017-05-03T01:54:27.140Z,932.48
2017-05-03T01:54:39.829Z,932.48
2017-05-03T01:54:52.983Z,932.47
2017-05-03T01:55:06.090Z,932.51
2017-05-03T01:55:19.231Z,932.45
2017-05-03T01:55:31.389Z,932.48
2017-05-03T01:55:44.557Z,932.46
2017-05-03T01:55:57.673Z,932.48
2017-05-03T01:56:10.785Z,932.48
2017-05-03T01:56:23.912Z,932.48
2017-05-03T01:56:37.068Z,932.51
2017-05-03T01:56:49.670Z,932.49
2017-05-03T01:57:02.502Z,932.5
2017-05-03T01:57:15.151Z,932.49
2017-05-03T01:57:28.296Z,932.48
2017-05-03T01:57:41.455Z,932.53
2017-05-03T01:57:54.624Z,932.52
2017-05-03T01:58:07.794Z,932.46
2017-05-03T01:58:20.461Z,932.5
2017-05-03T01:58:33.122Z,932.52
2017-05-03T01:58:45.745Z,932.49
2017-05-03T01:58:58.884Z,932.52
2017-05-03T01:59:11.523Z,932.52
2017-05-03T01:59:24.651Z,932.54
2017-05-03T01:59:39.137Z,932.52
2017-05-03T01:59:52.259Z,932.53
2017-05-03T02:00:05.365Z,932.52
2017-05-03T02:00:17.458Z,932.54
2017-05-03T02:00:30.582Z,932.54
2017-05-03T02:00:43.760Z,932.54
2017-05-03T02:00:56.884Z,932.52
2017-05-03T02:01:10.044Z,932.54
2017-05-03T02:01:23.172Z,932.52
2017-05-03T02:01:36.313Z,932.57
2017-05-03T02:01:48.928Z,932.56
2017-05-03T02:02:02.030Z,932.56
2017-05-03T02:02:14.635Z,932.58
2017-05-03T02:02:27.283Z,932.55
2017-05-03T02:02:39.915Z,932.6
2017-05-03T02:02:53.068Z,932.64
2017-05-03T02:03:05.768Z,932.6
2017-05-03T02:03:18.850Z,932.62
2017-05-03T02:03:31.481Z,932.61
2017-05-03T02:03:44.578Z,932.61
2017-05-03T02:03:57.713Z,932.61
2017-05-03T02:04:10.854Z,932.59
2017-05-03T02:04:23.500Z,932.63
2017-05-03T02:04:36.649Z,932.62
2017-05-03T02:04:49.707Z,932.63
2017-05-03T02:05:02.864Z,932.62
2017-05-03T02:05:15.481Z,932.59
2017-05-03T02:05:28.631Z,932.61
2017-05-03T02:05:41.732Z,932.59
2017-05-03T02:05:54.853Z,932.59
2017-05-03T02:06:07.521Z,932.61
2017-05-03T02:06:20.147Z,932.6
2017-05-03T02:06:33.322Z,932.6
2017-05-03T02:06:45.991Z,932.59
2017-05-03T02:06:59.101Z,932.59
2017-05-03T02:07:12.230Z,932.59
2017-05-03T02:07:25.487Z,932.63
2017-05-03T02:07:37.599Z,932.59
2017-05-03T02:07:50.781Z,932.58
2017-05-03T02:08:03.647Z,932.63
2017-05-03T02:08:16.716Z,932.62
2017-05-03T02:08:29.873Z,932.63
2017-05-03T02:08:43.073Z,932.63
2017-05-03T02:08:56.181Z,932.65
2017-05-03T02:09:09.293Z,932.6
2017-05-03T02:09:21.907Z,932.62
2017-05-03T02:09:34.591Z,932.62
2017-05-03T02:09:47.688Z,932.62
2017-05-03T02:10:00.790Z,932.61
2017-05-03T02:10:13.905Z,932.63
2017-05-03T02:10:27.040Z,932.62
2017-05-03T02:10:40.161Z,932.62
2017-05-03T02:10:53.293Z,932.62
2017-05-03T02:11:06.460Z,932.62
2017-05-03T02:11:18.567Z,932.68
2017-05-03T02:11:31.254Z,932.68
2017-05-03T02:11:44.435Z,932.65
2017-05-03T02:11:57.079Z,932.64
2017-05-03T02:12:10.535Z,932.64
2017-05-03T02:12:23.603Z,932.63
2017-05-03T02:12:36.686Z,932.63
2017-05-03T02:12:49.836Z,932.63
2017-05-03T02:13:02.473Z,932.65
2017-05-03T02:13:15.136Z,932.63
2017-05-03T02:13:28.266Z,932.63
2017-05-03T02:13:41.441Z,932.64
2017-05-03T02:13:54.595Z,932.65
2017-05-03T02:14:07.259Z,932.67
2017-05-03T02:14:19.383Z,932.66
2017-05-03T02:14:31.980Z,932.64
2017-05-03T02:14:45.161Z,932.65
2017-05-03T02:14:57.759Z,932.66
2017-05-03T02:15:10.433Z,932.65
2017-05-03T02:15:23.628Z,932.68
2017-05-03T02:15:36.749Z,932.65
2017-05-03T02:15:49.307Z,932.66
2017-05-03T02:16:02.463Z,932.66
2017-05-03T02:16:14.624Z,932.64
2017-05-03T02:16:27.738Z,932.63
2017-05-03T02:16:40.838Z,932.66
2017-05-03T02:16:53.456Z,932.68
2017-05-03T02:17:06.548Z,932.65
2017-05-03T02:17:19.713Z,932.64
2017-05-03T02:17:32.878Z,932.61
2017-05-03T02:17:46.009Z,932.65
2017-05-03T02:17:59.321Z,932.64
2017-05-03T02:18:11.439Z,932.61
2017-05-03T02:18:24.056Z,932.62
2017-05-03T02:18:36.660Z,932.65
2017-05-03T02:18:49.738Z,932.61
2017-05-03T02:19:01.823Z,932.62
2017-05-03T02:19:13.907Z,932.65
2017-05-03T02:19:26.478Z,932.62
2017-05-03T02:19:39.533Z,932.62
2017-05-03T02:19:52.649Z,932.62
2017-05-03T02:20:05.800Z,932.67
2017-05-03T02:20:18.418Z,932.64
2017-05-03T02:20:31.594Z,932.6
2017-05-03T02:20:44.213Z,932.65
2017-05-03T02:20:57.322Z,932.65
2017-05-03T02:21:09.985Z,932.63
2017-05-03T02:21:23.102Z,932.65
2017-05-03T02:21:36.335Z,932.65
2017-05-03T02:21:49.487Z,932.65
2017-05-03T02:22:02.103Z,932.63
2017-05-03T02:22:14.219Z,932.62
2017-05-03T02:22:27.322Z,932.64
2017-05-03T02:22:40.515Z,932.63
2017-05-03T02:22:53.611Z,932.64
2017-05-03T02:23:05.689Z,932.62
2017-05-03T02:23:18.836Z,932.62
2017-05-03T02:23:31.998Z,932.64
2017-05-03T02:23:45.154Z,932.61
2017-05-03T02:23:58.319Z,932.63
2017-05-03T02:24:11.452Z,932.63
2017-05-03T02:24:24.076Z,932.67
2017-05-03T02:24:36.714Z,932.64
2017-05-03T02:24:49.879Z,932.66
2017-05-03T02:25:02.051Z,932.63
2017-05-03T02:25:14.642Z,932.59
2017-05-03T02:25:27.705Z,932.59
2017-05-03T02:25:40.875Z,932.63
2017-05-03T02:25:53.534Z,932.6
2017-05-03T02:26:06.233Z,932.65
2017-05-03T02:26:19.361Z,932.62
2017-05-03T02:26:32.510Z,932.62
2017-05-03T02:26:45.714Z,932.59
2017-05-03T02:26:58.840Z,932.6
2017-05-03T02:27:11.943Z,932.62
2017-05-03T02:27:25.353Z,932.62
2017-05-03T02:27:38.526Z,932.63
2017-05-03T02:27:51.756Z,932.62
2017-05-03T02:28:04.958Z,932.57
2017-05-03T02:28:17.556Z,932.6
2017-05-03T02:28:30.742Z,932.61
2017-05-03T02:28:42.869Z,932.6
2017-05-03T02:28:56.018Z,932.62
2017-05-03T02:29:09.137Z,932.58
2017-05-03T02:29:22.280Z,932.61
2017-05-03T02:29:35.497Z,932.62
2017-05-03T02:29:48.632Z,932.62
2017-05-03T02:30:01.792Z,932.59
2017-05-03T02:30:14.386Z,932.6
2017-05-03T02:30:27.542Z,932.6
2017-05-03T02:30:40.741Z,932.59
2017-05-03T02:30:53.904Z,932.62
2017-05-03T02:31:07.040Z,932.6
2017-05-03T02:31:20.184Z,932.57
2017-05-03T02:31:33.290Z,932.59
2017-05-03T02:31:45.883Z,932.64
2017-05-03T02:31:59.029Z,932.58
2017-05-03T02:32:11.698Z,932.56
2017-05-03T02:32:24.296Z,932.6
2017-05-03T02:32:36.973Z,932.59
2017-05-03T02:32:50.104Z,932.57
2017-05-03T02:33:03.258Z,932.59
2017-05-03T02:33:15.815Z,932.55
2017-05-03T02:33:28.986Z,932.58
2017-05-03T02:33:42.069Z,932.54
2017-05-03T02:33:54.711Z,932.59
2017-05-03T02:34:07.337Z,932.55
2017-05-03T02:34:19.955Z,932.55
2017-05-03T02:34:33.067Z,932.56
2017-05-03T02:34:46.254Z,932.53
2017-05-03T02:34:59.464Z,932.55
2017-05-03T02:35:12.114Z,932.54
2017-05-03T02:35:24.695Z,932.52
2017-05-03T02:35:36.861Z,932.55
2017-05-03T02:35:50.007Z,932.52
2017-05-03T02:36:02.633Z,932.52
2017-05-03T02:36:15.260Z,932.52
2017-05-03T02:36:27.908Z,932.47
2017-05-03T02:36:40.512Z,932.5
2017-05-03T02:36:53.687Z,932.5
2017-05-03T02:37:06.803Z,932.46
2017-05-03T02:37:19.857Z,932.48
2017-05-03T02:37:32.965Z,932.48
2017-05-03T02:37:45.587Z,932.53
2017-05-03T02:37:58.710Z,932.5
2017-05-03T02:38:11.846Z,932.49
2017-05-03T02:38:24.992Z,932.49
2017-05-03T02:38:38.182Z,932.46
2017-05-03T02:38:50.790Z,932.48
2017-05-03T02:39:03.931Z,932.5
2017-05-03T02:39:17.071Z,932.48
2017-05-03T02:39:30.183Z,932.51
2017-05-03T02:39:43.383Z,932.49
2017-05-03T02:39:56.005Z,932.48
2017-05-03T02:40:09.095Z,932.46
2017-05-03T02:40:21.697Z,932.46
2017-05-03T02:40:34.300Z,932.47
2017-05-03T02:40:47.477Z,932.46
2017-05-03T02:41:00.601Z,932.46
2017-05-03T02:41:13.214Z,932.45
2017-05-03T02:41:26.244Z,932.47
2017-05-03T02:41:38.839Z,932.47
2017-05-03T02:41:51.948Z,932.47
2017-05-03T02:42:05.088Z,932.43
2017-05-03T02:42:17.205Z,932.45